Weather observations for the past three days for
Wiley Post-Will Rogers Memorial Airport
Metric (Imperial)
Date Time (akdt) Wind (kph) Vis. (km) Weather Sky Cond. Temperature (ºC) Relative Humidity Wind Chill (°C) Heat Index (°C) Pressure Precipitation (cm)
Air Dwpt 6 hour altimeter (cm) sea level (mb) 1 hr 3 hr 6 hr
Max. Min.
21 21:53 E 6 12.87 Overcast BKN003 BKN016 OVC028 6 4 87% 76.33 0.0
21 20:53 N 6 6.44 Fog/Mist SCT003 SCT022 OVC032 6 3 81% 76.33 0.0
21 19:53 NW 7 16.09 Overcast OVC003 6 4 87% 5 76.33 0.0
21 18:53 W 11 16.09 Overcast OVC003 6 4 87% 4 76.33 0.0
21 16:53 W 15 8.05 Fog/Mist OVC002 7 6 93% 5 76.33 0.0
21 15:53 W 20 0.80 Fog OVC003 7 5 87% 4 76.35 0.0
21 14:53 W 24 1.61 Fog/Mist OVC002 7 4 81% 4 76.35 0.0
21 13:53 W 22 8.05 Fog/Mist OVC004 7 5 87% 4 76.33 0.0
21 12:53 W 24 12.87 Mostly Cloudy FEW006 SCT013 BKN090 7 4 81% 4 76.33 0.0
21 11:53 W 24 11.27 Light Rain OVC055 7 4 81% 4 76.3 0.0
21 10:53 W 26 14.48 Overcast SCT044 OVC055 7 4 81% 3 76.28 0.0
21 09:53 W 28 14.48 Overcast OVC043 7 4 81% 3 76.28 0.0
21 08:53 W 28 16.09 Overcast BKN050 OVC080 7 4 81% 3 76.3 0.0
21 07:53 W 28 16.09 Overcast OVC055 7 4 81% 3 76.25 0.0
21 06:53 W 31 16.09 Mostly Cloudy SCT065 BKN110 7 4 81% 3 76.23 0.0
21 05:53 SW 28 16.09 Mostly Cloudy BKN110 8 4 76% 4 76.2 0.0
20 21:53 W 7 16.09 Overcast BKN046 OVC055 13 9 77% 76.28 0.0
20 20:53 SE 13 16.09 Mostly Cloudy FEW048 BKN055 13 9 77% 76.3 0.0
20 18:53 S 15 16.09 Overcast OVC065 11 8 82% 76.38 0.0
20 17:53 S 11 16.09 Overcast FEW026 FEW036 OVC048 8 7 93% 6 76.43 0.0
20 16:53 SW 13 9.66 Light Rain Fog/Mist BKN035 OVC046 7 5 87% 5 76.48 0.0
20 15:53 SW 19 16.09 Overcast OVC050 7 4 81% 4 76.48 0.0
20 14:53 SW 19 16.09 Overcast BKN005 OVC049 6 4 87% 3 76.45 0.0
20 13:53 W 11 4.02 Fog/Mist OVC004 6 4 87% 4 76.48 0.0
20 12:53 SW 9 4.83 Light Rain Fog/Mist OVC005 6 5 93% 4 76.48 0.0
20 11:53 SW 7 2.01 Fog/Mist OVC004 6 4 87% 5 76.45 0.0
20 10:53 SW 13 2.82 Fog/Mist OVC004 5 3 87% 2 76.45 0.0
20 09:53 SW 7 1.61 Fog/Mist BKN003 OVC008 4 3 93% 2 76.4 0.0
20 08:53 SW 7 1.61 Fog/Mist VV004 5 3 87% 4 76.4 0.0
20 07:53 NW 6 1.21 Fog/Mist OVC002 3 2 93% 76.4 0.0
20 06:53 Calm 2.41 Fog/Mist OVC003 3 1 87% 76.38 0.0
20 06:03 W 7 16.09 Overcast OVC003 3 1 87% 1 76.35 0.0
19 21:53 W 19 0.80 Fog VV003 3 1 87% -1 76.12 0.0
19 20:53 W 20 4.02 Fog/Mist BKN002 OVC011 4 2 87% 0 76.07 0.0
19 19:53 W 24 3.22 Fog/Mist OVC002 4 3 93% -0 76 0.0
19 18:53 W 28 8.05 Fog/Mist OVC003 5 3 87% 1 75.97 0.0
19 17:53 W 31 12.87 Overcast BKN005 OVC011 6 4 87% 2 75.92 0.0
19 16:53 W 39 G 52 12.87 Overcast and Breezy OVC014 7 4 81% 2 75.87 0.0
19 15:53 W 37 16.09 Overcast and Breezy FEW018 OVC026 7 4 81% 3 75.84 0.0
19 14:53 W 31 16.09 Partly Cloudy SCT026 8 5 82% 4 75.79 0.0
19 13:53 W 24 12.87 Fair CLR 7 4 81% 4 75.74 0.0
19 12:53 SW 31 G 44 16.09 Fair CLR 8 6 87% 4 75.69 0.0
19 11:53 SW 24 G 31 16.09 Fair CLR 8 5 82% 5 75.67 0.0
19 10:53 W 30 G 39 16.09 Fair CLR 9 6 82% 6 75.62 0.0
19 09:53 SW 33 G 48 16.09 Fair and Breezy CLR 13 8 72% 75.59 0.0
19 08:53 SW 41 G 56 16.09 Fair and Breezy CLR 14 9 72% 75.54 0.0
19 07:53 SW 33 G 48 16.09 Fair and Breezy CLR 14 9 72% 75.54 0.0
19 06:53 S 30 16.09 Fair CLR 13 9 77% 75.54 0.0
19 05:53 S 22 16.09 Overcast OVC065 12 9 82% 75.57 0.0
Date Time (akdt) Wind (kph) Vis. (km) Weather Sky Cond. Air Dwpt Max. Min. Relative Humidity Wind Chill (°C) Heat Index (°C) altimeter (cm) sea level (mb) 1 hr 3 hr 6 hr
6 hour
Temperature (ºC) Pressure Precipitation (cm)